createdAt,value
2022-09-04T00:00:15.032Z,100.00
2022-09-04T00:02:31.279Z,100.00
2022-09-04T00:04:43.132Z,100.00
2022-09-04T00:06:56.744Z,100.00
2022-09-04T00:09:12.939Z,100.00
2022-09-04T00:11:27.078Z,100.00
2022-09-04T00:13:34.539Z,100.00
2022-09-04T00:15:42.163Z,100.00
2022-09-04T00:17:51.223Z,100.00
2022-09-04T00:19:59.600Z,100.00
2022-09-04T00:22:05.929Z,100.00
2022-09-04T00:24:12.450Z,100.00
2022-09-04T00:26:24.636Z,100.00
2022-09-04T00:28:35.569Z,100.00
2022-09-04T00:30:50.346Z,100.00
2022-09-04T00:32:59.074Z,100.00
2022-09-04T00:35:11.869Z,100.00
2022-09-04T00:37:21.385Z,100.00
2022-09-04T00:39:34.472Z,100.00
2022-09-04T00:41:51.996Z,100.00
2022-09-04T00:44:35.660Z,100.00
2022-09-04T00:47:03.573Z,100.00
2022-09-04T00:49:20.195Z,100.00
2022-09-04T00:51:34.032Z,100.00
2022-09-04T00:53:55.416Z,100.00
2022-09-04T00:56:15.481Z,100.00
2022-09-04T00:58:33.242Z,100.00
2022-09-04T01:00:37.081Z,100.00
2022-09-04T01:03:19.808Z,100.00
2022-09-04T01:05:40.202Z,100.00
2022-09-04T01:07:56.176Z,100.00
2022-09-04T01:10:39.035Z,100.00
2022-09-04T01:12:50.850Z,100.00
2022-09-04T01:15:00.830Z,100.00
2022-09-04T01:17:14.413Z,100.00
2022-09-04T01:19:37.302Z,100.00
2022-09-04T01:22:01.510Z,100.00
2022-09-04T01:24:27.069Z,100.00
2022-09-04T01:26:41.549Z,100.00
2022-09-04T01:28:58.730Z,100.00
2022-09-04T01:31:07.753Z,100.00
2022-09-04T01:33:19.461Z,100.00
2022-09-04T01:35:31.818Z,100.00
2022-09-04T01:37:47.145Z,100.00
2022-09-04T01:40:00.554Z,100.00
2022-09-04T01:42:11.064Z,100.00
2022-09-04T01:44:14.954Z,100.00
2022-09-04T01:46:39.910Z,100.00
2022-09-04T01:48:51.287Z,100.00
2022-09-04T01:51:04.029Z,100.00
2022-09-04T01:53:12.627Z,100.00
2022-09-04T01:55:25.915Z,100.00
2022-09-04T01:57:42.040Z,100.00
2022-09-04T01:59:55.386Z,100.00
2022-09-04T02:02:03.408Z,100.00
2022-09-04T02:04:18.228Z,100.00
2022-09-04T02:06:33.005Z,100.00
2022-09-04T02:08:56.136Z,100.00
2022-09-04T02:11:04.864Z,100.00
2022-09-04T02:13:17.664Z,100.00
2022-09-04T02:15:34.080Z,100.00
2022-09-04T02:17:44.888Z,100.00
2022-09-04T02:20:01.058Z,100.00
2022-09-04T02:22:12.503Z,100.00
2022-09-04T02:24:26.846Z,100.00
2022-09-04T02:26:34.891Z,100.00
2022-09-04T02:28:48.891Z,100.00
2022-09-04T02:31:02.401Z,100.00
2022-09-04T02:33:13.211Z,100.00
2022-09-04T02:35:23.308Z,100.00
2022-09-04T02:37:32.606Z,100.00
2022-09-04T02:39:46.875Z,100.00
2022-09-04T02:42:00.627Z,100.00
2022-09-04T02:44:18.541Z,100.00
2022-09-04T02:46:29.077Z,100.00
2022-09-04T02:48:42.049Z,100.00
2022-09-04T02:51:00.116Z,100.00
2022-09-04T02:53:18.499Z,100.00
2022-09-04T02:55:35.906Z,100.00
2022-09-04T02:57:48.382Z,100.00
2022-09-04T03:00:00.029Z,100.00
2022-09-04T03:02:04.780Z,100.00
2022-09-04T03:04:16.409Z,100.00
2022-09-04T03:06:26.240Z,100.00
2022-09-04T03:08:37.440Z,100.00
2022-09-04T03:10:44.515Z,100.00
2022-09-04T03:12:52.389Z,100.00
2022-09-04T03:15:03.902Z,100.00
2022-09-04T03:17:14.232Z,100.00
2022-09-04T03:19:25.305Z,100.00
2022-09-04T03:21:35.144Z,100.00
2022-09-04T03:23:51.778Z,100.00
2022-09-04T03:26:05.632Z,100.00
2022-09-04T03:28:14.275Z,100.00
2022-09-04T03:30:19.516Z,100.00
2022-09-04T03:32:29.190Z,100.00
2022-09-04T03:34:43.046Z,100.00
2022-09-04T03:36:59.406Z,100.00
2022-09-04T03:39:10.343Z,100.00
2022-09-04T03:41:30.109Z,100.00
2022-09-04T03:43:47.503Z,100.00
2022-09-04T03:45:59.825Z,100.00
2022-09-04T03:48:15.784Z,100.00
2022-09-04T03:50:26.091Z,100.00
2022-09-04T03:52:35.529Z,100.00
2022-09-04T03:55:00.154Z,100.00
2022-09-04T03:57:32.328Z,100.00
2022-09-04T04:00:03.382Z,100.00
2022-09-04T04:02:26.909Z,100.00
2022-09-04T04:04:56.160Z,100.00
2022-09-04T04:07:09.072Z,100.00
2022-09-04T04:09:37.863Z,100.00
2022-09-04T04:11:54.125Z,100.00
2022-09-04T04:14:19.325Z,100.00
2022-09-04T04:16:40.623Z,100.00
2022-09-04T04:19:03.791Z,100.00
2022-09-04T04:21:16.695Z,100.00
2022-09-04T04:23:39.743Z,100.00
2022-09-04T04:26:08.628Z,100.00
2022-09-04T04:28:24.800Z,100.00
2022-09-04T04:30:31.394Z,100.00
2022-09-04T04:33:00.319Z,100.00
2022-09-04T04:35:13.130Z,100.00
2022-09-04T04:37:25.826Z,100.00
2022-09-04T04:39:40.602Z,100.00
2022-09-04T04:42:07.143Z,100.00
2022-09-04T04:44:16.582Z,100.00
2022-09-04T04:46:34.559Z,100.00
2022-09-04T04:49:05.260Z,100.00
2022-09-04T04:51:20.330Z,100.00
2022-09-04T04:53:31.646Z,100.00
2022-09-04T04:55:43.001Z,100.00
2022-09-04T04:57:56.103Z,100.00
2022-09-04T05:00:11.770Z,100.00
2022-09-04T05:02:22.344Z,100.00
2022-09-04T05:04:36.891Z,100.00
2022-09-04T05:06:46.464Z,100.00
2022-09-04T05:08:58.821Z,100.00
2022-09-04T05:11:09.461Z,100.00
2022-09-04T05:13:21.383Z,100.00
2022-09-04T05:15:35.995Z,100.00
2022-09-04T05:17:55.863Z,100.00
2022-09-04T05:20:25.118Z,100.00
2022-09-04T05:22:37.660Z,100.00
2022-09-04T05:24:50.150Z,100.00
2022-09-04T05:27:03.798Z,100.00
2022-09-04T05:29:14.635Z,100.00
2022-09-04T05:31:23.761Z,100.00
2022-09-04T05:33:36.940Z,100.00
2022-09-04T05:35:46.909Z,100.00
2022-09-04T05:37:57.680Z,100.00
2022-09-04T05:40:05.386Z,100.00
2022-09-04T05:42:38.094Z,100.00
2022-09-04T05:44:55.639Z,100.00
2022-09-04T05:47:09.904Z,100.00
2022-09-04T05:49:24.960Z,100.00
2022-09-04T05:51:45.052Z,100.00
2022-09-04T05:54:09.922Z,100.00
2022-09-04T05:56:41.242Z,100.00
2022-09-04T05:59:00.035Z,100.00
2022-09-04T06:01:15.250Z,100.00
2022-09-04T06:03:44.600Z,100.00
2022-09-04T06:06:12.266Z,100.00
2022-09-04T06:08:28.835Z,100.00
2022-09-04T06:10:45.862Z,100.00
2022-09-04T06:13:04.548Z,100.00
2022-09-04T06:15:34.134Z,100.00
2022-09-04T06:17:54.073Z,100.00
2022-09-04T06:20:23.947Z,100.00
2022-09-04T06:22:40.571Z,100.00
2022-09-04T06:25:02.895Z,100.00
2022-09-04T06:27:22.305Z,100.00
2022-09-04T06:29:41.306Z,100.00
2022-09-04T06:32:07.357Z,100.00
2022-09-04T06:34:22.470Z,100.00
2022-09-04T06:36:51.919Z,100.00
2022-09-04T06:39:20.356Z,100.00
2022-09-04T06:41:45.075Z,100.00
2022-09-04T06:44:00.100Z,100.00
2022-09-04T06:46:16.394Z,100.00
2022-09-04T06:48:29.975Z,100.00
2022-09-04T06:50:42.878Z,100.00
2022-09-04T06:52:55.835Z,100.00
2022-09-04T06:55:00.724Z,100.00
2022-09-04T06:57:20.327Z,100.00
2022-09-04T06:59:46.935Z,100.00
2022-09-04T07:02:02.376Z,100.00
2022-09-04T07:04:18.198Z,100.00
2022-09-04T07:06:31.136Z,100.00
2022-09-04T07:08:46.713Z,100.00
2022-09-04T07:10:59.758Z,100.00
2022-09-04T07:13:38.946Z,100.00
2022-09-04T07:15:53.176Z,100.00
2022-09-04T07:18:07.275Z,100.00
2022-09-04T07:20:22.056Z,100.00
2022-09-04T07:22:42.795Z,100.00
2022-09-04T07:24:59.600Z,100.00
2022-09-04T07:27:12.203Z,100.00
2022-09-04T07:29:32.642Z,100.00
2022-09-04T07:31:47.425Z,100.00
2022-09-04T07:33:59.427Z,100.00
2022-09-04T07:36:10.295Z,100.00
2022-09-04T07:38:22.669Z,100.00
2022-09-04T07:40:31.870Z,100.00
2022-09-04T07:42:45.772Z,100.00
2022-09-04T07:44:59.931Z,100.00
2022-09-04T07:47:14.268Z,100.00
2022-09-04T07:49:24.893Z,100.00
2022-09-04T07:51:35.266Z,100.00
2022-09-04T07:53:51.372Z,100.00
2022-09-04T07:56:01.663Z,100.00
2022-09-04T07:58:53.529Z,100.00
2022-09-04T08:01:14.202Z,100.00
2022-09-04T08:03:33.328Z,100.00
2022-09-04T08:05:41.142Z,100.00
2022-09-04T08:08:16.319Z,100.00
2022-09-04T08:10:30.397Z,100.00
2022-09-04T08:12:57.937Z,100.00
2022-09-04T08:15:13.435Z,100.00
2022-09-04T08:17:52.988Z,100.00
2022-09-04T08:20:06.075Z,100.00
2022-09-04T08:22:13.198Z,100.00
2022-09-04T08:24:55.008Z,100.00
2022-09-04T08:27:10.665Z,100.00
2022-09-04T08:29:33.351Z,100.00
2022-09-04T08:31:42.992Z,100.00
2022-09-04T08:34:07.527Z,100.00
2022-09-04T08:36:22.048Z,100.00
2022-09-04T08:38:45.816Z,100.00
2022-09-04T08:41:26.105Z,100.00
2022-09-04T08:43:39.948Z,100.00
2022-09-04T08:46:13.401Z,100.00
2022-09-04T08:49:11.636Z,100.00
2022-09-04T08:52:08.082Z,98.90
2022-09-04T08:54:57.750Z,99.56
2022-09-04T08:57:25.559Z,99.01
2022-09-04T09:00:03.038Z,96.70
2022-09-04T09:02:42.622Z,96.09
2022-09-04T09:05:20.388Z,93.04
2022-09-04T09:08:03.106Z,94.03
2022-09-04T09:10:49.924Z,93.54
2022-09-04T09:13:44.506Z,93.04
2022-09-04T09:16:15.396Z,90.64
2022-09-04T09:18:40.502Z,88.86
2022-09-04T09:20:53.288Z,86.42
2022-09-04T09:23:20.541Z,85.99
2022-09-04T09:25:27.615Z,86.04
2022-09-04T09:28:12.430Z,82.64
2022-09-04T09:30:18.950Z,81.63
2022-09-04T09:32:50.335Z,80.33
2022-09-04T09:35:30.078Z,81.84
2022-09-04T09:38:03.672Z,81.49
2022-09-04T09:40:43.883Z,78.63
2022-09-04T09:43:26.833Z,75.42
2022-09-04T09:45:55.666Z,75.07
2022-09-04T09:48:55.988Z,73.57
2022-09-04T09:51:37.743Z,71.58
2022-09-04T09:54:05.163Z,68.37
2022-09-04T09:57:04.481Z,68.15
2022-09-04T09:59:32.241Z,66.26
2022-09-04T10:01:57.838Z,64.49
2022-09-04T10:04:40.232Z,62.44
2022-09-04T10:07:05.550Z,59.40
2022-09-04T10:09:46.063Z,57.23
2022-09-04T10:12:18.738Z,56.14
2022-09-04T10:14:56.885Z,56.00
2022-09-04T10:17:34.919Z,55.95
2022-09-04T10:20:21.425Z,55.63
2022-09-04T10:23:04.360Z,54.23
2022-09-04T10:25:40.043Z,53.00
2022-09-04T10:28:00.903Z,52.94
2022-09-04T10:30:10.172Z,51.33
2022-09-04T10:32:35.501Z,48.17
2022-09-04T10:35:10.854Z,48.21
2022-09-04T10:37:34.089Z,50.07
2022-09-04T10:40:06.677Z,47.78
2022-09-04T10:42:19.868Z,47.56
2022-09-04T10:44:37.474Z,45.68
2022-09-04T10:46:52.447Z,45.58
2022-09-04T10:49:31.210Z,45.65
2022-09-04T10:52:17.198Z,43.47
2022-09-04T10:54:48.255Z,44.46
2022-09-04T10:56:59.998Z,43.90
2022-09-04T10:59:23.414Z,42.64
2022-09-04T11:02:14.198Z,42.46
2022-09-04T11:04:39.429Z,42.03
2022-09-04T11:07:10.494Z,40.87
2022-09-04T11:09:43.814Z,40.08
2022-09-04T11:12:09.537Z,40.62
2022-09-04T11:14:39.858Z,39.51
2022-09-04T11:17:18.471Z,38.68
2022-09-04T11:19:48.542Z,38.95
2022-09-04T11:22:34.943Z,40.64
2022-09-04T11:25:10.501Z,38.23
2022-09-04T11:27:49.232Z,38.76
2022-09-04T11:30:06.848Z,37.36
2022-09-04T11:32:38.264Z,36.71
2022-09-04T11:35:13.984Z,35.60
2022-09-04T11:37:44.492Z,35.53
2022-09-04T11:40:16.421Z,34.70
2022-09-04T11:42:33.442Z,34.52
2022-09-04T11:44:52.042Z,33.96
2022-09-04T11:47:28.567Z,35.38
2022-09-04T11:49:44.932Z,39.57
2022-09-04T11:52:26.416Z,36.87
2022-09-04T11:54:58.647Z,35.80
2022-09-04T11:57:08.721Z,34.69
2022-09-04T11:59:46.416Z,33.65
2022-09-04T12:02:15.363Z,34.93
2022-09-04T12:04:30.519Z,35.00
2022-09-04T12:06:51.216Z,34.41
2022-09-04T12:09:20.906Z,33.71
2022-09-04T12:11:42.029Z,33.67
2022-09-04T12:14:05.556Z,34.83
2022-09-04T12:16:27.787Z,40.81
2022-09-04T12:18:54.476Z,42.45
2022-09-04T12:21:25.393Z,44.36
2022-09-04T12:23:55.354Z,43.45
2022-09-04T12:26:27.543Z,43.53
2022-09-04T12:28:55.659Z,41.16
2022-09-04T12:31:15.845Z,44.16
2022-09-04T12:33:42.771Z,46.66
2022-09-04T12:36:24.340Z,44.77
2022-09-04T12:38:47.370Z,42.91
2022-09-04T12:40:59.800Z,44.59
2022-09-04T12:43:21.016Z,41.62
2022-09-04T12:45:31.524Z,42.31
2022-09-04T12:47:46.952Z,40.38
2022-09-04T12:50:16.052Z,39.00
2022-09-04T12:52:36.586Z,40.00
2022-09-04T12:54:44.192Z,40.28
2022-09-04T12:56:53.359Z,40.40
2022-09-04T12:59:27.917Z,40.85
2022-09-04T13:01:44.193Z,37.26
2022-09-04T13:03:58.757Z,37.37
2022-09-04T13:06:17.181Z,37.49
2022-09-04T13:08:31.418Z,39.20
2022-09-04T13:10:45.049Z,36.73
2022-09-04T13:12:58.146Z,35.44
2022-09-04T13:15:30.703Z,34.20
2022-09-04T13:17:48.453Z,33.59
2022-09-04T13:20:00.547Z,33.87
2022-09-04T13:22:16.910Z,32.42
2022-09-04T13:24:36.478Z,32.13
2022-09-04T13:26:56.532Z,31.10
2022-09-04T13:29:16.036Z,31.70
2022-09-04T13:31:35.453Z,31.31
2022-09-04T13:33:53.853Z,30.51
2022-09-04T13:36:16.625Z,29.63
2022-09-04T13:38:45.557Z,29.44
2022-09-04T13:41:12.616Z,29.12
2022-09-04T13:43:50.331Z,28.75
2022-09-04T13:45:55.977Z,28.92
2022-09-04T13:48:02.403Z,29.05
2022-09-04T13:50:14.129Z,28.93
2022-09-04T13:52:24.376Z,28.58
2022-09-04T13:54:34.901Z,28.13
2022-09-04T13:56:43.715Z,27.87
2022-09-04T13:58:51.498Z,29.04
2022-09-04T14:01:00.544Z,29.81
2022-09-04T14:03:10.325Z,30.48
2022-09-04T14:05:20.454Z,31.52
2022-09-04T14:07:31.705Z,30.64
2022-09-04T14:09:40.389Z,28.97
2022-09-04T14:12:18.608Z,29.19
2022-09-04T14:14:42.993Z,30.24
2022-09-04T14:16:46.205Z,31.33
2022-09-04T14:19:16.216Z,30.68
2022-09-04T14:21:30.782Z,31.83
2022-09-04T14:23:47.790Z,32.48
2022-09-04T14:25:55.371Z,33.20
2022-09-04T14:28:04.479Z,34.17
2022-09-04T14:30:10.465Z,35.68
2022-09-04T14:32:23.672Z,33.77
2022-09-04T14:34:37.580Z,34.22
2022-09-04T14:36:56.374Z,32.81
2022-09-04T14:39:14.722Z,31.99
2022-09-04T14:41:36.548Z,34.19
2022-09-04T14:43:49.502Z,32.30
2022-09-04T14:46:04.744Z,33.93
2022-09-04T14:48:11.417Z,34.03
2022-09-04T14:50:18.065Z,34.32
2022-09-04T14:52:28.075Z,32.58
2022-09-04T14:54:36.253Z,30.35
2022-09-04T14:56:45.842Z,32.14
2022-09-04T14:58:55.013Z,32.53
2022-09-04T15:01:04.504Z,34.03
2022-09-04T15:03:15.467Z,34.32
2022-09-04T15:05:23.230Z,33.61
2022-09-04T15:07:53.389Z,33.00
2022-09-04T15:10:10.691Z,30.29
2022-09-04T15:12:26.860Z,30.90
2022-09-04T15:14:34.849Z,30.65
2022-09-04T15:16:49.628Z,30.52
2022-09-04T15:18:59.018Z,32.14
2022-09-04T15:21:05.249Z,33.10
2022-09-04T15:23:20.709Z,31.02
2022-09-04T15:25:58.275Z,34.26
2022-09-04T15:28:09.905Z,31.58
2022-09-04T15:30:20.732Z,29.69
2022-09-04T15:32:26.677Z,31.77
2022-09-04T15:34:32.350Z,31.18
2022-09-04T15:36:37.774Z,29.53
2022-09-04T15:38:50.629Z,29.46
2022-09-04T15:41:16.650Z,28.52
2022-09-04T15:43:25.385Z,28.90
2022-09-04T15:45:36.096Z,29.47
2022-09-04T15:48:11.667Z,28.77
2022-09-04T15:50:20.741Z,28.44
2022-09-04T15:52:31.744Z,29.00
2022-09-04T15:54:55.773Z,28.18
2022-09-04T15:57:03.997Z,28.16
2022-09-04T15:59:15.973Z,27.49
2022-09-04T16:01:23.452Z,26.62
2022-09-04T16:03:32.377Z,26.45
2022-09-04T16:05:45.136Z,25.30
2022-09-04T16:08:03.730Z,25.09
2022-09-04T16:10:16.592Z,24.89
2022-09-04T16:12:25.353Z,24.83
2022-09-04T16:14:31.961Z,24.27
2022-09-04T16:16:42.485Z,24.41
2022-09-04T16:18:55.181Z,24.29
2022-09-04T16:21:01.106Z,24.38
2022-09-04T16:23:08.536Z,24.23
2022-09-04T16:25:27.263Z,23.74
2022-09-04T16:27:31.470Z,26.13
2022-09-04T16:29:38.058Z,25.74
2022-09-04T16:31:41.311Z,26.46
2022-09-04T16:33:50.178Z,24.76
2022-09-04T16:35:56.423Z,24.91
2022-09-04T16:38:06.932Z,25.35
2022-09-04T16:40:28.243Z,24.36
2022-09-04T16:42:39.990Z,24.33
2022-09-04T16:44:48.301Z,24.42
2022-09-04T16:47:02.930Z,24.47
2022-09-04T16:49:10.777Z,25.51
2022-09-04T16:51:40.319Z,24.92
2022-09-04T16:53:51.121Z,26.42
2022-09-04T16:56:02.324Z,26.50
2022-09-04T16:58:20.156Z,27.36
2022-09-04T17:00:51.762Z,26.58
2022-09-04T17:03:00.141Z,27.58
2022-09-04T17:05:17.706Z,25.70
2022-09-04T17:07:24.974Z,25.99
2022-09-04T17:09:35.448Z,25.76
2022-09-04T17:11:46.850Z,26.92
2022-09-04T17:14:08.363Z,27.22
2022-09-04T17:16:18.632Z,27.82
2022-09-04T17:18:23.533Z,26.91
2022-09-04T17:21:26.128Z,26.71
2022-09-04T17:28:55.908Z,27.45
2022-09-04T17:29:16.662Z,28.61
2022-09-04T17:29:19.231Z,28.32
2022-09-04T17:30:36.176Z,30.31
2022-09-04T17:38:09.080Z,30.83
2022-09-04T17:40:39.280Z,31.55
2022-09-04T17:40:48.576Z,34.39
2022-09-04T17:40:56.102Z,33.26
2022-09-04T17:43:19.123Z,36.20
2022-09-04T17:45:26.732Z,38.68
2022-09-04T17:47:33.966Z,40.53
2022-09-04T17:49:43.573Z,42.35
2022-09-04T17:51:54.053Z,45.92
2022-09-04T17:54:04.987Z,47.30
2022-09-04T17:56:15.012Z,47.99
2022-09-04T17:58:31.026Z,50.68
2022-09-04T18:00:53.643Z,53.24
2022-09-04T18:03:27.052Z,55.67
2022-09-04T18:05:36.393Z,60.02
2022-09-04T18:08:08.291Z,58.90
2022-09-04T18:10:23.797Z,58.38
2022-09-04T18:12:34.486Z,57.68
2022-09-04T18:14:42.728Z,59.22
2022-09-04T18:17:12.689Z,58.67
2022-09-04T18:19:22.163Z,58.40
2022-09-04T18:21:29.956Z,59.45
2022-09-04T18:23:52.034Z,60.04
2022-09-04T18:26:00.587Z,59.62
2022-09-04T18:28:12.982Z,60.03
2022-09-04T18:34:54.192Z,60.99
2022-09-04T18:37:08.298Z,59.92
2022-09-04T18:37:23.603Z,60.20
2022-09-04T18:37:50.359Z,60.29
2022-09-04T18:40:06.450Z,62.61
2022-09-04T18:50:20.738Z,64.70
2022-09-04T18:50:24.612Z,67.18
2022-09-04T18:50:34.463Z,67.99
2022-09-04T18:50:47.016Z,69.52
2022-09-04T18:52:23.422Z,69.95
2022-09-04T18:54:41.598Z,70.57
2022-09-04T18:56:47.770Z,69.44
2022-09-04T18:59:00.126Z,69.44
2022-09-04T19:01:26.840Z,70.08
2022-09-04T19:03:40.639Z,72.41
2022-09-04T19:05:47.729Z,72.52
2022-09-04T19:07:54.881Z,71.41
2022-09-04T19:10:17.456Z,71.78
2022-09-04T19:12:23.334Z,72.78
2022-09-04T19:14:34.189Z,73.87
2022-09-04T19:16:43.043Z,73.30
2022-09-04T19:18:51.674Z,72.20
2022-09-04T19:21:14.642Z,72.07
2022-09-04T19:23:26.978Z,73.33
2022-09-04T19:25:35.096Z,75.30
2022-09-04T19:27:40.746Z,75.25
2022-09-04T19:29:50.640Z,74.40
2022-09-04T19:32:00.687Z,73.99
2022-09-04T19:34:13.768Z,75.13
2022-09-04T19:36:30.895Z,75.05
2022-09-04T19:43:14.763Z,75.86
2022-09-04T19:46:05.052Z,77.71
2022-09-04T19:46:07.786Z,77.66
2022-09-04T19:46:29.495Z,75.70
2022-09-04T19:48:49.259Z,76.08
2022-09-04T19:53:32.969Z,77.02
2022-09-04T19:53:51.639Z,76.99
2022-09-04T19:55:59.975Z,77.09
2022-09-04T19:58:09.045Z,77.60
2022-09-04T20:00:38.358Z,79.08
2022-09-04T20:02:50.001Z,78.44
2022-09-04T20:04:57.860Z,78.90
2022-09-04T20:07:04.926Z,79.99
2022-09-04T20:09:16.790Z,78.84
2022-09-04T20:11:34.538Z,80.08
2022-09-04T20:13:44.156Z,78.58
2022-09-04T20:15:55.184Z,79.28
2022-09-04T20:18:08.442Z,79.08
2022-09-04T20:20:19.077Z,78.11
2022-09-04T20:22:31.252Z,78.21
2022-09-04T20:24:41.325Z,78.49
2022-09-04T20:26:49.852Z,78.66
2022-09-04T20:29:11.601Z,78.46
2022-09-04T20:31:36.602Z,78.98
2022-09-04T20:33:44.872Z,78.75
2022-09-04T20:35:53.433Z,78.65
2022-09-04T20:38:01.223Z,78.44
2022-09-04T20:40:17.986Z,78.55
2022-09-04T20:42:25.960Z,77.61
2022-09-04T20:44:57.879Z,78.22
2022-09-04T20:52:51.958Z,78.24
2022-09-04T20:52:54.573Z,79.14
2022-09-04T20:53:05.397Z,78.96
2022-09-04T20:54:51.778Z,79.50
2022-09-04T20:58:33.684Z,79.05
2022-09-04T21:03:13.782Z,79.40
2022-09-04T21:03:21.625Z,78.93
2022-09-04T21:04:47.438Z,78.87
2022-09-04T21:06:56.856Z,80.96
2022-09-04T21:09:13.951Z,79.62
2022-09-04T21:11:39.641Z,81.25
2022-09-04T21:13:48.667Z,81.25
2022-09-04T21:16:02.844Z,80.67
2022-09-04T21:18:18.946Z,80.98
2022-09-04T21:20:59.859Z,84.23
2022-09-04T21:23:32.156Z,82.36
2022-09-04T21:25:46.968Z,82.97
2022-09-04T21:28:17.997Z,83.74
2022-09-04T21:30:42.575Z,87.33
2022-09-04T21:33:04.143Z,90.09
2022-09-04T21:35:23.472Z,96.59
2022-09-04T21:37:32.761Z,95.93
2022-09-04T21:40:18.795Z,94.51
2022-09-04T21:42:55.976Z,88.71
2022-09-04T21:45:28.333Z,89.40
2022-09-04T21:48:04.917Z,87.48
2022-09-04T21:50:42.616Z,87.90
2022-09-04T21:52:59.685Z,86.16
2022-09-04T21:59:04.662Z,85.42
2022-09-04T22:02:41.531Z,86.88
2022-09-04T22:02:45.497Z,87.72
2022-09-04T22:03:31.546Z,86.02
2022-09-04T22:05:43.349Z,90.08
2022-09-04T22:10:27.516Z,91.64
2022-09-04T22:13:32.170Z,95.69
2022-09-04T22:13:42.341Z,94.14
2022-09-04T22:15:59.815Z,89.58
2022-09-04T22:18:31.905Z,90.42
2022-09-04T22:20:52.606Z,86.50
2022-09-04T22:23:33.503Z,88.63
2022-09-04T22:26:09.125Z,82.60
2022-09-04T22:28:49.327Z,83.13
2022-09-04T22:31:19.562Z,85.07
2022-09-04T22:34:15.369Z,86.99
2022-09-04T22:37:00.400Z,87.57
2022-09-04T22:39:30.993Z,87.28
2022-09-04T22:41:57.400Z,85.25
2022-09-04T22:44:11.997Z,86.55
2022-09-04T22:46:47.324Z,88.41
2022-09-04T22:49:25.892Z,90.57
2022-09-04T22:51:43.360Z,89.66
2022-09-04T22:54:21.657Z,88.70
2022-09-04T22:56:38.729Z,88.71
2022-09-04T22:59:07.659Z,88.78
2022-09-04T23:01:46.679Z,92.53
2022-09-04T23:04:07.034Z,91.75
2022-09-04T23:09:54.056Z,94.49
2022-09-04T23:13:45.086Z,94.00
2022-09-04T23:13:51.397Z,98.15
2022-09-04T23:14:41.581Z,96.40
2022-09-04T23:17:18.019Z,92.82
2022-09-04T23:26:46.442Z,100.00
2022-09-04T23:26:49.397Z,99.12
2022-09-04T23:27:29.589Z,100.00
2022-09-04T23:29:51.420Z,100.00
2022-09-04T23:32:13.595Z,100.00
2022-09-04T23:34:38.303Z,100.00
2022-09-04T23:37:02.777Z,99.96
2022-09-04T23:39:29.950Z,97.73
2022-09-04T23:41:52.913Z,100.00
2022-09-04T23:44:29.531Z,99.53
2022-09-04T23:46:45.457Z,99.09
2022-09-04T23:49:06.580Z,99.44
2022-09-04T23:51:24.311Z,100.00
2022-09-04T23:53:37.582Z,100.00
2022-09-04T23:55:57.716Z,100.00
2022-09-04T23:58:26.799Z,100.00
